Bayside, NY

5:56 AM EDT on October 20, 2014 (GMT -0400)
Harlem Yacht Club | Change Station
CLOSE
Current Station
Personal Weather Station
Location: City Island, NY
Elevation: 10 ft
Nearby Weather Stations

Elev 10 ft 40.85 °N, 73.79 °W | Updated 7 minutes ago

Mostly Cloudy
Mostly Cloudy
44.2 °F
Feels Like 42 °F
N
4.0
Wind Variable Wind from WSW
Gusts 9.0 mph

Today
High -- | Low -- °F
--% Chance of Precip.
Yesterday
High -- | Low -- °F
Precip. -- in
7:11 AM 6:07 PM
Waning Crescent, 12% visible
Pressure 30.10 in
Visibility 10.0 miles
Clouds Mostly Cloudy 25000 ft
Windchill 42 °F
Dew Point 33 °F
Humidity 66%
Rainfall 0.00 in
Snow Depth Not available.
UV 0 out of 12
Pollen 2.30 out of 12
Air Quality Not available.
Flu Activity Sporadic
METAR KLGA 200951Z 27006KT 10SM BKN250 07/M02 A3010 RMK AO2 SLP191 T00671017

More Conditions Fewer Conditions

Pressure 30.10 in
Visibility 10.0 miles
Clouds Mostly Cloudy 25000 ft
Windchill 42 °F
Dew Point 33 °F
Humidity 66%
Rainfall 0.00 in
Snow Depth Not available.
UV 0 out of 12
Pollen 2.30 out of 12
Air Quality Not available.
Flu Activity Sporadic
METAR KLGA 200951Z 27006KT 10SM BKN250 07/M02 A3010 RMK AO2 SLP191 T00671017

More Conditions Fewer Conditions

10-Day Weather Forecast

Almanac

Astronomy

Oct. 20, 2014 Rise Set
Actual Time 7:11 AM EDT 6:07 PM EDT
Civil Twilight 6:44 AM EDT 6:35 PM EDT
Nautical Twilight 6:12 AM EDT 7:06 PM EDT
Astronomical Twilight 5:40 AM EDT 7:38 PM EDT
Moon 3:56 AM EDT 4:29 PM EDT
Length of Visible Light 11h 51m
Length of Day
10h 55m
Waning Crescent, 12% of the Moon is Illuminated
Today
Waning Crescent
Oct 23
New
Oct 30
First Quarter
Nov 6
Full
Nov 14
Last Quarter

Today's Extremes

State Highs State Lows

Community

WunderPhotos

Upload Photos

1,763,325 photos uploaded!

Nearby

Snow Depth

Station Depth Elevation
No new snow has been reported.

Earthquake Activity

City Distance Mag. Time & Date
No recent earthquake activity has been reported nearby.
Minimum magnitude displayed is 2.5.

Coastal Water Temperatures

Place Temperature
Bridgeport, CT 64.0 °F

Nearby Weather Stations